Time;durP1;ratioP1;P1;durP2;ratioP2;P2;SDS_P1;SDS_P2;PMS_P1;PMS_P2;Temp;Humidity;BMP_temperature;BMP_pressure;BME280_temperature;BME280_humidity;BME280_pressure;Samples;Min_cycle;Max_cycle;Signal;HPM_P1;HPM_P2
2023/08/20 00:00:12;;;;;;;8.63;5.97;;;19.50;99.90;;;;;;5040161;28;20175;-79
2023/08/20 00:02:39;;;;;;;10.45;5.60;;;19.50;99.90;;;;;;5041485;28;20226;-80
2023/08/20 00:05:06;;;;;;;8.27;5.85;;;19.50;99.90;;;;;;5039388;28;20727;-80
2023/08/20 00:07:32;;;;;;;12.10;6.28;;;19.50;99.90;;;;;;5056045;28;20202;-80
2023/08/20 00:09:58;;;;;;;12.73;6.30;;;19.40;99.90;;;;;;5041167;28;20175;-80
2023/08/20 00:12:25;;;;;;;7.05;6.15;;;19.40;99.90;;;;;;5054494;28;20217;-80
2023/08/20 00:15:04;;;;;;;11.10;6.35;;;19.40;99.90;;;;;;5039719;28;20207;-79
2023/08/20 00:17:32;;;;;;;10.43;6.88;;;19.40;99.90;;;;;;5056142;28;20178;-80
2023/08/20 00:19:58;;;;;;;8.57;6.55;;;19.40;99.90;;;;;;5040939;28;20494;-80
2023/08/20 00:22:25;;;;;;;10.40;7.10;;;19.40;99.90;;;;;;5056209;28;20195;-79
2023/08/20 00:24:55;;;;;;;12.85;7.38;;;19.40;99.90;;;;;;5040126;28;20552;-80
2023/08/20 00:27:21;;;;;;;10.52;7.38;;;19.40;99.90;;;;;;5054249;28;20219;-80
2023/08/20 00:29:47;;;;;;;10.52;7.35;;;19.30;99.90;;;;;;5039367;28;20266;-80
2023/08/20 00:32:14;;;;;;;10.18;7.00;;;19.20;99.90;;;;;;5040646;28;20239;-80
2023/08/20 00:34:40;;;;;;;8.73;7.30;;;19.20;99.90;;;;;;5040068;28;20213;-80
2023/08/20 00:37:06;;;;;;;6.95;6.05;;;19.20;99.90;;;;;;5055803;28;20179;-80
2023/08/20 00:39:32;;;;;;;11.18;7.25;;;19.20;99.90;;;;;;5055810;28;20670;-80
2023/08/20 00:41:57;;;;;;;12.98;7.05;;;19.30;99.90;;;;;;5039613;28;20705;-80
2023/08/20 00:44:23;;;;;;;9.43;6.70;;;19.20;99.90;;;;;;5039458;28;20189;-80
2023/08/20 00:46:50;;;;;;;9.73;6.82;;;19.10;99.90;;;;;;5040480;28;20254;-79
2023/08/20 00:49:17;;;;;;;9.48;6.10;;;19.00;99.90;;;;;;5040363;28;20612;-79
2023/08/20 00:51:43;;;;;;;9.88;5.72;;;19.10;99.90;;;;;;5037587;28;20207;-80
2023/08/20 00:54:10;;;;;;;10.68;5.97;;;19.00;99.90;;;;;;5038538;28;20544;-80
2023/08/20 00:56:37;;;;;;;12.63;6.10;;;19.00;99.90;;;;;;5037993;28;20245;-80
2023/08/20 00:59:05;;;;;;;6.97;5.57;;;19.00;99.90;;;;;;5054473;28;20175;-80
2023/08/20 01:01:31;;;;;;;7.43;5.38;;;19.00;99.90;;;;;;5052948;28;20183;-80
2023/08/20 01:03:57;;;;;;;8.32;6.50;;;19.00;99.90;;;;;;5039515;28;20217;-79
2023/08/20 01:06:37;;;;;;;9.23;7.22;;;19.00;99.90;;;;;;5040179;28;20175;-79
2023/08/20 01:09:38;;;;;;;10.05;7.20;;;19.10;99.90;;;;;;5038139;28;20182;-79
2023/08/20 01:12:06;;;;;;;8.45;6.55;;;19.10;99.90;;;;;;4993049;28;20309;-80
2023/08/20 01:14:32;;;;;;;10.40;7.03;;;19.10;99.90;;;;;;5037586;28;20205;-80
2023/08/20 01:16:58;;;;;;;9.15;6.78;;;19.10;99.90;;;;;;5037174;28;20187;-80
2023/08/20 01:19:24;;;;;;;11.95;7.05;;;19.10;99.90;;;;;;5038224;28;20175;-80
2023/08/20 01:22:14;;;;;;;12.40;8.18;;;19.10;99.90;;;;;;5037208;28;20183;-80
2023/08/20 01:24:53;;;;;;;15.10;8.98;;;19.10;99.90;;;;;;5040037;28;20170;-80
2023/08/20 01:27:57;;;;;;;12.68;8.70;;;19.10;99.90;;;;;;5054182;28;20195;-79
2023/08/20 01:30:23;;;;;;;13.63;8.48;;;19.00;99.90;;;;;;5037180;28;20281;-80
2023/08/20 01:32:54;;;;;;;11.57;8.23;;;19.10;99.90;;;;;;5037039;28;20203;-80
2023/08/20 01:35:19;;;;;;;12.23;8.98;;;19.00;99.90;;;;;;5038803;28;20559;-80
2023/08/20 01:37:45;;;;;;;10.93;8.32;;;19.00;99.90;;;;;;5037453;28;20182;-80
2023/08/20 01:40:12;;;;;;;16.70;9.40;;;18.90;99.90;;;;;;5038624;28;20656;-81
2023/08/20 01:42:38;;;;;;;13.85;9.30;;;18.90;99.90;;;;;;5038702;28;20206;-80
2023/08/20 01:45:05;;;;;;;11.65;9.50;;;18.80;99.90;;;;;;5037902;28;20191;-79
2023/08/20 01:47:31;;;;;;;15.27;9.82;;;18.80;99.90;;;;;;5037602;28;20179;-80
2023/08/20 01:49:58;;;;;;;12.60;10.10;;;18.80;99.90;;;;;;5037695;28;20251;-80
2023/08/20 01:52:24;;;;;;;14.85;8.82;;;18.70;99.90;;;;;;5036718;28;20598;-80
2023/08/20 01:54:50;;;;;;;12.25;9.68;;;18.70;99.90;;;;;;5052645;28;20630;-80
2023/08/20 01:57:16;;;;;;;14.85;9.38;;;18.70;99.90;;;;;;5036960;28;20211;-80
2023/08/20 01:59:42;;;;;;;12.35;8.93;;;18.70;99.90;;;;;;5038364;28;20167;-80
2023/08/20 02:02:07;;;;;;;15.25;9.82;;;18.70;99.90;;;;;;5036646;28;20245;-80
2023/08/20 02:04:33;;;;;;;12.10;9.60;;;18.70;99.90;;;;;;5036031;28;20206;-80
2023/08/20 02:06:59;;;;;;;11.80;9.70;;;18.70;99.90;;;;;;5037149;28;20167;-80
2023/08/20 02:09:25;;;;;;;12.75;10.23;;;18.70;99.90;;;;;;5036729;28;20183;-80
2023/08/20 02:11:51;;;;;;;12.50;9.90;;;18.70;99.90;;;;;;5036780;28;20195;-80
2023/08/20 02:14:17;;;;;;;13.55;9.52;;;18.70;99.90;;;;;;5053404;28;20211;-80
2023/08/20 02:16:43;;;;;;;12.90;10.02;;;18.70;99.90;;;;;;5038594;28;20186;-80
2023/08/20 02:19:09;;;;;;;13.68;9.43;;;18.70;99.90;;;;;;5037108;28;20264;-79
2023/08/20 02:21:36;;;;;;;12.73;8.77;;;18.70;99.90;;;;;;5037436;28;20596;-80
2023/08/20 02:24:02;;;;;;;16.13;10.18;;;18.70;99.90;;;;;;5038271;28;20190;-80
2023/08/20 02:26:27;;;;;;;14.23;9.68;;;18.60;99.90;;;;;;5037399;28;20202;-81
2023/08/20 02:28:53;;;;;;;16.48;9.32;;;18.60;99.90;;;;;;5037154;28;20569;-79
2023/08/20 02:31:19;;;;;;;12.13;9.00;;;18.60;99.90;;;;;;5036977;28;20179;-80
2023/08/20 02:33:45;;;;;;;9.88;7.93;;;18.60;99.90;;;;;;5038173;28;20545;-80
2023/08/20 02:36:11;;;;;;;11.40;8.40;;;18.60;99.90;;;;;;5040690;28;20202;-80
2023/08/20 02:38:36;;;;;;;12.55;8.23;;;18.60;99.90;;;;;;5037006;28;20178;-80
2023/08/20 02:41:05;;;;;;;10.88;9.25;;;18.60;99.90;;;;;;5035553;28;20201;-80
2023/08/20 02:43:31;;;;;;;10.70;8.10;;;18.60;99.90;;;;;;5019228;28;20226;-81
2023/08/20 02:45:56;;;;;;;9.30;7.80;;;18.50;99.90;;;;;;5054096;28;20179;-80
2023/08/20 02:48:26;;;;;;;13.10;8.82;;;18.50;99.90;;;;;;5039749;28;20266;-80
2023/08/20 02:50:54;;;;;;;10.50;7.80;;;18.50;99.90;;;;;;5037117;28;20193;-80
2023/08/20 02:53:20;;;;;;;9.52;7.90;;;18.50;99.90;;;;;;5037728;28;20249;-80
2023/08/20 02:55:46;;;;;;;17.05;8.98;;;18.50;99.90;;;;;;5037681;28;20585;-80
2023/08/20 02:58:11;;;;;;;10.07;7.68;;;18.40;99.90;;;;;;5040281;28;20179;-79
2023/08/20 03:00:37;;;;;;;12.63;8.07;;;18.40;99.90;;;;;;5061939;28;20175;-79
2023/08/20 03:03:07;;;;;;;13.55;8.32;;;18.30;99.90;;;;;;5040323;28;20559;-80
2023/08/20 03:05:33;;;;;;;12.43;8.18;;;18.30;99.90;;;;;;5038832;28;20214;-80
2023/08/20 03:07:58;;;;;;;15.43;8.82;;;18.30;99.90;;;;;;5052132;28;20179;-80
2023/08/20 03:10:25;;;;;;;12.23;8.55;;;18.30;99.90;;;;;;5037067;28;20552;-80
2023/08/20 03:12:51;;;;;;;11.32;8.38;;;18.30;99.90;;;;;;5044222;28;20213;-80
2023/08/20 03:15:17;;;;;;;10.98;8.27;;;18.30;99.90;;;;;;5047462;28;20210;-79
2023/08/20 03:17:43;;;;;;;12.52;8.85;;;18.30;99.90;;;;;;5020551;28;20183;-80
2023/08/20 03:20:09;;;;;;;12.63;8.60;;;18.40;99.90;;;;;;5024312;28;20183;-80
2023/08/20 03:22:37;;;;;;;12.18;8.60;;;18.40;99.90;;;;;;5038990;28;20205;-79
2023/08/20 03:25:04;;;;;;;10.10;8.23;;;18.40;99.90;;;;;;5061391;28;20627;-79
2023/08/20 03:27:30;;;;;;;12.07;8.13;;;18.50;99.90;;;;;;5058760;28;20285;-80
2023/08/20 03:29:56;;;;;;;11.00;8.18;;;18.50;99.90;;;;;;5040277;28;20648;-80
2023/08/20 03:32:22;;;;;;;11.98;7.55;;;18.50;99.90;;;;;;5038711;28;20203;-80
2023/08/20 03:34:47;;;;;;;12.27;7.35;;;18.50;99.90;;;;;;5040437;28;20289;-80
2023/08/20 03:37:13;;;;;;;10.02;7.55;;;18.50;99.90;;;;;;5037092;28;20194;-79
2023/08/20 03:39:39;;;;;;;13.25;7.22;;;18.50;99.90;;;;;;5040071;28;20174;-80
2023/08/20 03:42:04;;;;;;;14.48;9.48;;;18.50;99.90;;;;;;5038126;28;20203;-80
2023/08/20 03:44:31;;;;;;;24.25;9.00;;;18.50;99.90;;;;;;5038159;28;20197;-80
2023/08/20 03:46:57;;;;;;;11.93;7.95;;;18.50;99.90;;;;;;5034904;28;20226;-80
2023/08/20 03:49:23;;;;;;;11.57;7.50;;;18.50;99.90;;;;;;5020803;28;20176;-80
2023/08/20 03:51:49;;;;;;;12.27;7.45;;;18.40;99.90;;;;;;5019091;28;20195;-80
2023/08/20 03:54:14;;;;;;;13.75;7.15;;;18.40;99.90;;;;;;5020323;28;20611;-80
2023/08/20 03:56:41;;;;;;;12.27;7.68;;;18.30;99.90;;;;;;5022229;28;20561;-80
2023/08/20 03:59:07;;;;;;;11.52;7.30;;;18.30;99.90;;;;;;5039202;28;20175;-80
2023/08/20 04:01:33;;;;;;;11.45;7.18;;;18.20;99.90;;;;;;5037630;28;20194;-80
2023/08/20 04:03:59;;;;;;;12.50;7.65;;;18.20;99.90;;;;;;5038773;28;20201;-80
2023/08/20 04:06:25;;;;;;;15.20;7.85;;;18.20;99.90;;;;;;5038587;28;20176;-80
2023/08/20 04:08:51;;;;;;;11.55;7.20;;;18.10;99.90;;;;;;5035845;28;20233;-80
2023/08/20 04:11:16;;;;;;;12.50;7.55;;;18.10;99.90;;;;;;5029507;28;20552;-80
2023/08/20 04:13:43;;;;;;;8.95;6.63;;;18.10;99.90;;;;;;5036545;28;20245;-80
2023/08/20 04:16:09;;;;;;;10.20;6.55;;;18.00;99.90;;;;;;5056034;28;20244;-80
2023/08/20 04:18:35;;;;;;;15.15;7.05;;;18.00;99.90;;;;;;5055843;28;20557;-80
2023/08/20 04:21:01;;;;;;;10.00;7.00;;;18.00;99.90;;;;;;5056077;28;20203;-80
2023/08/20 04:23:27;;;;;;;9.80;6.68;;;18.00;99.90;;;;;;5054105;28;20207;-81
2023/08/20 04:25:52;;;;;;;15.98;7.32;;;18.00;99.90;;;;;;5053207;28;20195;-80
2023/08/20 04:28:19;;;;;;;12.57;6.97;;;18.00;99.90;;;;;;5054524;28;20191;-80
2023/08/20 04:30:44;;;;;;;13.05;7.43;;;18.00;99.90;;;;;;5038649;28;20213;-80
2023/08/20 04:33:10;;;;;;;10.73;6.88;;;18.00;99.90;;;;;;5036686;28;20211;-80
2023/08/20 04:35:36;;;;;;;10.45;6.72;;;18.00;99.90;;;;;;5037798;28;20265;-80
2023/08/20 04:38:02;;;;;;;8.88;7.18;;;18.00;99.90;;;;;;5055382;28;20175;-80
2023/08/20 04:40:28;;;;;;;11.88;6.90;;;18.00;99.90;;;;;;5054981;28;20225;-80
2023/08/20 04:42:54;;;;;;;12.30;7.80;;;18.00;99.90;;;;;;5050824;28;20646;-80
2023/08/20 04:45:20;;;;;;;13.45;7.28;;;18.00;99.90;;;;;;5055109;28;20175;-80
2023/08/20 04:47:46;;;;;;;15.52;7.43;;;18.10;99.90;;;;;;5054551;28;20190;-80
2023/08/20 04:50:13;;;;;;;16.52;7.95;;;18.10;99.90;;;;;;5053561;28;20195;-80
2023/08/20 04:52:39;;;;;;;13.13;8.63;;;18.10;99.90;;;;;;5039523;28;20302;-80
2023/08/20 04:55:09;;;;;;;11.55;7.55;;;18.10;99.90;;;;;;5039768;28;20560;-80
2023/08/20 04:57:35;;;;;;;16.63;9.20;;;18.20;99.90;;;;;;5052646;28;20765;-80
2023/08/20 05:00:00;;;;;;;11.70;8.90;;;18.20;99.90;;;;;;5036824;28;20183;-80
2023/08/20 05:02:26;;;;;;;13.52;9.52;;;18.20;99.90;;;;;;5035019;28;20203;-80
2023/08/20 05:04:52;;;;;;;17.17;9.75;;;18.30;99.90;;;;;;5054724;28;20179;-80
2023/08/20 05:07:18;;;;;;;17.88;9.85;;;18.30;99.90;;;;;;5049388;28;20183;-80
2023/08/20 05:09:43;;;;;;;17.75;11.07;;;18.40;99.90;;;;;;5054341;28;20670;-80
2023/08/20 05:12:10;;;;;;;15.65;11.10;;;18.50;99.90;;;;;;5038651;28;20218;-81
2023/08/20 05:14:35;;;;;;;16.13;10.98;;;18.50;99.90;;;;;;5036997;28;20202;-81
2023/08/20 05:17:01;;;;;;;17.45;10.95;;;18.50;99.90;;;;;;5038214;28;20208;-81
2023/08/20 05:19:27;;;;;;;16.95;12.02;;;18.60;99.90;;;;;;5039283;28;20175;-80
2023/08/20 05:21:55;;;;;;;17.08;11.07;;;18.60;99.90;;;;;;5036753;28;20185;-80
2023/08/20 05:24:22;;;;;;;15.45;11.98;;;18.60;99.90;;;;;;5047844;28;20183;-80
2023/08/20 05:27:05;;;;;;;17.30;13.45;;;18.60;99.90;;;;;;5035286;28;20734;-81
2023/08/20 05:29:31;;;;;;;21.17;13.35;;;18.60;99.90;;;;;;5029918;28;20195;-80
2023/08/20 05:31:57;;;;;;;18.02;12.98;;;18.70;99.90;;;;;;5015826;28;20706;-80
2023/08/20 05:34:23;;;;;;;20.65;14.63;;;18.80;99.90;;;;;;5023565;28;20210;-80
2023/08/20 05:36:48;;;;;;;28.63;16.25;;;18.80;99.90;;;;;;5035502;28;20221;-80
2023/08/20 05:39:14;;;;;;;20.50;14.25;;;18.80;99.90;;;;;;5033321;28;20210;-80
2023/08/20 05:41:40;;;;;;;23.70;15.65;;;18.80;99.90;;;;;;5034538;28;20213;-80
2023/08/20 05:44:05;;;;;;;20.10;15.65;;;18.90;99.90;;;;;;5030961;28;20682;-80
2023/08/20 05:46:31;;;;;;;19.88;14.05;;;18.90;99.90;;;;;;5034778;28;20294;-80
2023/08/20 05:48:57;;;;;;;20.88;14.50;;;18.90;99.90;;;;;;5031134;28;20182;-80
2023/08/20 05:51:23;;;;;;;16.55;12.10;;;19.00;99.90;;;;;;5017547;28;20252;-80
2023/08/20 05:53:48;;;;;;;19.17;12.77;;;19.10;99.90;;;;;;5027366;28;20203;-79
2023/08/20 05:56:14;;;;;;;16.33;13.32;;;19.10;99.90;;;;;;5035579;28;20719;-79
2023/08/20 05:58:40;;;;;;;24.10;15.25;;;19.20;99.90;;;;;;5039131;28;20677;-79
2023/08/20 06:01:05;;;;;;;25.40;14.65;;;19.20;99.90;;;;;;5028682;28;20639;-79
2023/08/20 06:03:31;;;;;;;21.40;15.13;;;19.20;99.90;;;;;;5030838;28;20206;-79
2023/08/20 06:05:58;;;;;;;21.15;14.40;;;19.30;99.90;;;;;;5030752;28;20646;-79
2023/08/20 06:08:24;;;;;;;19.48;14.10;;;19.40;99.90;;;;;;5031713;28;20589;-79
2023/08/20 06:10:50;;;;;;;18.55;14.52;;;19.40;99.90;;;;;;5025818;28;20183;-80
2023/08/20 06:13:16;;;;;;;20.38;14.65;;;19.50;99.90;;;;;;5025541;28;20198;-80
2023/08/20 06:15:42;;;;;;;30.50;17.50;;;19.60;99.90;;;;;;5025319;28;20550;-79
2023/08/20 06:18:07;;;;;;;25.52;17.42;;;19.60;99.90;;;;;;5032071;28;20183;-79
2023/08/20 06:20:33;;;;;;;41.42;23.02;;;19.60;99.90;;;;;;5033002;28;20232;-78
2023/08/20 06:22:59;;;;;;;31.40;19.23;;;19.70;99.90;;;;;;5030738;28;20265;-79
2023/08/20 06:25:25;;;;;;;43.92;24.73;;;19.70;99.90;;;;;;5028794;28;20702;-79
2023/08/20 06:27:50;;;;;;;43.70;24.98;;;19.80;99.90;;;;;;5014846;28;20179;-79
2023/08/20 06:30:16;;;;;;;43.83;24.75;;;19.80;99.90;;;;;;5028628;28;20194;-79
2023/08/20 06:32:43;;;;;;;49.67;28.52;;;19.90;99.90;;;;;;5031351;28;20297;-80
2023/08/20 06:35:09;;;;;;;42.95;24.23;;;19.90;99.90;;;;;;5028902;28;20281;-79
2023/08/20 06:37:35;;;;;;;50.88;28.42;;;20.00;99.90;;;;;;5030365;28;20217;-80
2023/08/20 06:40:01;;;;;;;43.53;26.95;;;20.00;99.90;;;;;;5030962;28;20187;-81
2023/08/20 06:42:27;;;;;;;45.67;25.88;;;20.20;99.90;;;;;;5033674;28;20205;-80
2023/08/20 06:44:52;;;;;;;52.90;28.38;;;20.20;99.90;;;;;;5033183;28;20634;-79
2023/08/20 06:47:18;;;;;;;48.17;28.05;;;20.30;99.90;;;;;;5034306;28;20225;-79
2023/08/20 06:49:44;;;;;;;46.05;26.58;;;20.40;99.90;;;;;;5020908;28;20192;-78
2023/08/20 06:52:10;;;;;;;44.08;25.35;;;20.40;99.90;;;;;;5034482;28;20219;-80
2023/08/20 06:54:36;;;;;;;40.28;21.92;;;20.40;99.90;;;;;;5033831;28;20214;-81
2023/08/20 06:57:02;;;;;;;47.15;27.88;;;20.40;99.90;;;;;;5035092;28;20639;-81
2023/08/20 06:59:27;;;;;;;46.58;26.27;;;20.50;99.90;;;;;;5040663;28;20329;-80
2023/08/20 07:01:53;;;;;;;40.45;23.77;;;20.60;99.90;;;;;;5031229;28;20187;-81
2023/08/20 07:04:19;;;;;;;44.25;26.33;;;20.70;99.90;;;;;;5030204;28;20175;-81
2023/08/20 07:06:45;;;;;;;37.13;21.77;;;20.80;99.90;;;;;;5041829;28;20247;-82
2023/08/20 07:09:10;;;;;;;34.08;22.20;;;20.80;99.90;;;;;;5040737;28;20214;-80
2023/08/20 07:11:36;;;;;;;45.10;25.27;;;20.80;99.90;;;;;;5027984;28;20179;-82
2023/08/20 07:14:02;;;;;;;41.22;24.27;;;20.90;99.90;;;;;;5037337;28;20629;-81
2023/08/20 07:16:28;;;;;;;36.25;21.92;;;20.90;99.90;;;;;;5024452;28;20206;-81
2023/08/20 07:18:54;;;;;;;29.10;17.67;;;20.90;99.90;;;;;;5026815;28;20179;-80
2023/08/20 07:21:19;;;;;;;34.90;20.50;;;21.00;99.90;;;;;;5024514;28;20551;-80
2023/08/20 07:23:45;;;;;;;40.28;23.52;;;21.00;99.90;;;;;;5035449;28;20199;-79
2023/08/20 07:26:15;;;;;;;33.67;19.83;;;21.20;99.90;;;;;;5021223;28;20206;-80
2023/08/20 07:28:56;;;;;;;35.15;21.83;;;21.30;99.90;;;;;;5030358;28;20179;-80
2023/08/20 07:31:34;;;;;;;40.58;22.50;;;21.30;99.90;;;;;;5032024;28;20171;-80
2023/08/20 07:34:02;;;;;;;40.38;21.17;;;21.50;99.90;;;;;;5039010;28;20209;-80
2023/08/20 07:36:28;;;;;;;41.05;23.65;;;21.70;99.90;;;;;;5031877;28;20196;-80
2023/08/20 07:38:54;;;;;;;37.45;23.00;;;21.70;99.90;;;;;;5027601;28;20179;-80
2023/08/20 07:41:21;;;;;;;36.17;22.58;;;21.80;99.90;;;;;;5034219;28;20180;-80
2023/08/20 07:43:47;;;;;;;41.22;24.42;;;21.90;99.90;;;;;;5036330;28;20203;-80
2023/08/20 07:46:13;;;;;;;39.40;21.90;;;22.00;99.90;;;;;;5023302;28;20237;-80
2023/08/20 07:48:39;;;;;;;34.42;20.77;;;22.10;99.90;;;;;;5030655;28;20188;-81
2023/08/20 07:51:05;;;;;;;38.03;22.00;;;22.20;99.90;;;;;;5029435;28;20190;-81
2023/08/20 07:53:32;;;;;;;35.85;21.60;;;22.20;99.90;;;;;;5033294;28;20223;-80
2023/08/20 07:55:58;;;;;;;41.63;24.33;;;22.30;99.90;;;;;;5038645;28;20694;-80
2023/08/20 07:58:24;;;;;;;42.67;25.23;;;22.40;99.90;;;;;;5036812;28;20245;-81
2023/08/20 08:00:50;;;;;;;37.80;22.73;;;22.40;99.90;;;;;;5029269;28;20544;-81
2023/08/20 08:03:16;;;;;;;38.65;22.52;;;22.60;99.90;;;;;;5036564;28;20199;-78
2023/08/20 08:05:47;;;;;;;39.88;24.23;;;22.70;99.90;;;;;;5020838;28;20216;-78
2023/08/20 08:08:13;;;;;;;39.33;25.35;;;22.80;99.90;;;;;;5021713;28;20225;-77
2023/08/20 08:10:39;;;;;;;34.10;22.13;;;22.80;99.90;;;;;;5030564;28;20183;-78
2023/08/20 08:13:05;;;;;;;36.85;21.80;;;22.90;99.90;;;;;;5027282;28;20286;-79
2023/08/20 08:15:31;;;;;;;33.25;21.00;;;23.00;99.90;;;;;;5033242;28;20605;-78
2023/08/20 08:17:56;;;;;;;36.60;23.52;;;23.00;99.90;;;;;;5034935;28;20194;-75
2023/08/20 08:20:22;;;;;;;36.90;24.35;;;23.10;99.90;;;;;;5033766;28;20183;-74
2023/08/20 08:22:48;;;;;;;37.03;23.70;;;23.20;99.90;;;;;;5035063;28;20210;-74
2023/08/20 08:25:14;;;;;;;31.80;20.67;;;23.20;99.90;;;;;;5035943;28;20185;-74
2023/08/20 08:27:40;;;;;;;36.88;24.00;;;23.30;99.90;;;;;;5034388;28;20183;-74
2023/08/20 08:30:06;;;;;;;32.58;21.10;;;23.50;99.90;;;;;;5036433;28;20207;-75
2023/08/20 08:32:33;;;;;;;33.92;22.52;;;23.80;99.90;;;;;;5034379;28;20257;-75
2023/08/20 08:34:58;;;;;;;31.08;22.00;;;24.20;99.90;;;;;;5032138;28;20207;-74
2023/08/20 08:37:24;;;;;;;26.55;17.25;;;24.40;99.90;;;;;;5030386;28;20520;-74
2023/08/20 08:39:50;;;;;;;27.33;19.48;;;24.60;99.90;;;;;;5030337;28;20580;-74
2023/08/20 08:42:19;;;;;;;24.15;17.85;;;24.80;99.90;;;;;;5039485;28;20217;-75
2023/08/20 08:44:45;;;;;;;24.70;17.58;;;25.00;99.90;;;;;;5034305;28;20235;-74
2023/08/20 08:47:12;;;;;;;25.23;16.55;;;25.20;99.90;;;;;;5031434;28;20199;-74
2023/08/20 08:49:38;;;;;;;26.90;18.52;;;25.30;99.90;;;;;;5024970;28;20597;-74
2023/08/20 08:52:06;;;;;;;19.85;15.57;;;25.40;99.90;;;;;;5035208;28;20210;-74
2023/08/20 08:54:33;;;;;;;21.23;15.70;;;25.60;99.90;;;;;;5035299;28;20209;-74
2023/08/20 08:57:00;;;;;;;20.17;15.20;;;25.80;99.90;;;;;;5021501;28;20183;-73
2023/08/20 08:59:26;;;;;;;21.08;13.60;;;25.80;99.90;;;;;;5017877;28;20164;-74
2023/08/20 09:01:53;;;;;;;17.80;13.15;;;26.00;99.90;;;;;;5036146;28;20538;-74
2023/08/20 09:04:19;;;;;;;24.27;13.52;;;26.10;99.90;;;;;;5033815;28;20206;-74
2023/08/20 09:06:46;;;;;;;16.50;12.57;;;26.20;99.90;;;;;;5034193;28;20188;-75
2023/08/20 09:09:12;;;;;;;18.02;11.93;;;26.20;99.90;;;;;;5028907;28;20185;-74
2023/08/20 09:11:37;;;;;;;17.17;13.70;;;26.30;99.90;;;;;;5039370;28;20167;-74
2023/08/20 09:14:03;;;;;;;18.48;12.80;;;26.40;99.90;;;;;;5039730;28;20230;-74
2023/08/20 09:16:32;;;;;;;19.35;12.95;;;26.60;99.90;;;;;;5034309;28;20206;-74
2023/08/20 09:19:01;;;;;;;15.80;11.00;;;26.80;99.90;;;;;;5033900;28;20270;-74
2023/08/20 09:21:31;;;;;;;14.30;10.57;;;26.90;99.90;;;;;;5033511;28;20565;-74
2023/08/20 09:24:00;;;;;;;12.50;9.88;;;26.90;8.50;;;;;;5014612;28;20702;-74
2023/08/20 09:26:26;;;;;;;13.60;9.80;;;26.90;1.00;;;;;;5016972;28;20274;-74
2023/08/20 09:28:55;;;;;;;12.82;9.57;;;27.00;99.60;;;;;;5033663;28;20663;-73
2023/08/20 09:31:38;;;;;;;12.52;7.95;;;27.10;1.00;;;;;;5050618;28;20183;-73
2023/08/20 09:34:04;;;;;;;9.00;7.35;;;27.00;90.80;;;;;;5033710;28;20259;-73
2023/08/20 09:36:34;;;;;;;11.50;7.53;;;27.20;99.90;;;;;;5035515;28;20740;-74
2023/08/20 09:39:02;;;;;;;10.30;7.38;;;27.20;99.90;;;;;;5033789;28;20182;-74
2023/08/20 09:41:28;;;;;;;10.23;7.40;;;27.40;99.90;;;;;;5033451;28;20717;-75
2023/08/20 09:43:57;;;;;;;9.18;7.35;;;27.40;92.10;;;;;;5030263;28;20199;-75
2023/08/20 09:46:25;;;;;;;9.38;6.80;;;27.40;85.50;;;;;;5032429;28;20215;-74
2023/08/20 09:49:01;;;;;;;7.40;5.45;;;27.60;21.30;;;;;;5015795;28;20180;-74
2023/08/20 09:51:31;;;;;;;8.45;6.00;;;27.50;1.00;;;;;;5027426;28;21703;-74
2023/08/20 09:54:46;;;;;;;11.13;6.72;;;27.50;1.00;;;;;;5033473;28;20217;-73
2023/08/20 09:57:23;;;;;;;10.18;6.70;;;27.50;1.00;;;;;;5022154;28;20214;-73
2023/08/20 09:59:50;;;;;;;7.32;6.07;;;27.70;1.00;;;;;;5034661;28;20570;-73
2023/08/20 10:02:16;;;;;;;10.38;7.15;;;27.90;99.90;;;;;;5034297;28;20203;-74
2023/08/20 10:04:43;;;;;;;8.52;6.68;;;27.90;99.90;;;;;;5033441;28;20171;-74
2023/08/20 10:07:10;;;;;;;8.55;6.20;;;27.90;99.90;;;;;;5033207;28;20241;-74
2023/08/20 10:09:39;;;;;;;10.45;6.65;;;27.80;99.90;;;;;;5029102;28;20707;-75
2023/08/20 10:12:05;;;;;;;8.00;6.93;;;27.80;99.90;;;;;;5022531;28;20237;-74
2023/08/20 10:14:32;;;;;;;9.88;6.35;;;27.70;99.90;;;;;;5032928;28;20179;-74
2023/08/20 10:17:00;;;;;;;9.35;6.20;;;27.60;90.30;;;;;;5034356;28;20504;-73
2023/08/20 10:19:30;;;;;;;9.65;6.90;;;27.60;99.90;;;;;;5013795;28;20180;-74
2023/08/20 10:21:56;;;;;;;9.80;6.15;;;27.60;1.00;;;;;;5013726;28;20204;-75
2023/08/20 10:24:24;;;;;;;8.90;6.63;;;27.70;1.00;;;;;;5033255;28;20186;-74
2023/08/20 10:27:08;;;;;;;9.23;5.93;;;27.90;1.00;;;;;;5027670;28;20184;-74
2023/08/20 10:29:39;;;;;;;11.30;6.40;;;28.00;1.00;;;;;;5025428;28;20229;-74
2023/08/20 10:32:12;;;;;;;8.43;5.88;;;28.00;99.90;;;;;;5033480;28;20202;-74
2023/08/20 10:34:43;;;;;;;9.95;7.18;;;28.10;1.00;;;;;;5031133;28;20210;-74
2023/08/20 10:37:12;;;;;;;9.10;5.85;;;28.30;99.90;;;;;;5030224;28;20189;-74
2023/08/20 10:39:44;;;;;;;9.13;6.22;;;28.20;1.00;;;;;;5032445;28;20175;-74
2023/08/20 10:42:26;;;;;;;7.57;6.20;;;28.10;99.90;;;;;;5032500;28;20615;-74
2023/08/20 10:45:03;;;;;;;10.25;6.20;;;28.30;99.90;;;;;;5029777;28;20214;-73
2023/08/20 10:47:48;;;;;;;9.25;6.72;;;28.20;99.90;;;;;;5031881;28;20213;-73
2023/08/20 10:50:19;;;;;;;8.98;5.10;;;28.20;99.90;;;;;;5014622;28;20202;-74
2023/08/20 10:52:50;;;;;;;7.40;5.32;;;28.10;99.90;;;;;;5018432;28;20693;-73
2023/08/20 10:55:16;;;;;;;8.80;5.70;;;28.20;1.00;;;;;;5046570;28;20202;-73
2023/08/20 10:57:41;;;;;;;8.70;5.70;;;28.30;1.00;;;;;;5047777;28;20179;-73
2023/08/20 11:00:11;;;;;;;6.75;4.97;;;28.10;1.00;;;;;;5032047;28;20175;-73
2023/08/20 11:02:44;;;;;;;6.78;5.45;;;28.00;99.90;;;;;;5018540;28;20317;-73
2023/08/20 11:05:28;;;;;;;11.27;6.65;;;27.90;99.90;;;;;;5012731;28;20603;-73
2023/08/20 11:07:53;;;;;;;8.15;6.35;;;27.90;99.90;;;;;;5012952;28;20199;-73
2023/08/20 11:10:20;;;;;;;7.85;6.13;;;27.80;99.90;;;;;;5012371;28;20222;-73
2023/08/20 11:12:46;;;;;;;9.15;6.57;;;27.70;1.00;;;;;;5011922;28;20253;-73
2023/08/20 11:15:12;;;;;;;8.55;6.18;;;27.80;99.90;;;;;;5013715;28;20211;-73
2023/08/20 11:17:48;;;;;;;12.05;6.45;;;27.90;83.20;;;;;;5013871;28;20303;-74
2023/08/20 11:20:17;;;;;;;9.98;7.38;;;28.10;99.90;;;;;;5013826;28;20205;-74
2023/08/20 11:22:43;;;;;;;11.27;8.45;;;28.10;99.90;;;;;;5012352;28;20196;-74
2023/08/20 11:25:13;;;;;;;10.10;7.47;;;28.10;36.60;;;;;;5013688;28;20267;-74
2023/08/20 11:27:45;;;;;;;11.65;8.75;;;28.20;1.00;;;;;;5025754;28;20179;-74
2023/08/20 11:30:13;;;;;;;12.02;7.50;;;28.20;99.90;;;;;;5033403;28;20261;-74
2023/08/20 11:32:39;;;;;;;11.13;7.90;;;28.00;99.90;;;;;;5032047;28;20211;-74
2023/08/20 11:35:06;;;;;;;10.20;8.43;;;27.90;1.00;;;;;;5032884;28;20309;-74
2023/08/20 11:37:33;;;;;;;12.55;8.68;;;27.60;1.00;;;;;;5031442;28;20266;-74
2023/08/20 11:39:59;;;;;;;13.60;8.73;;;27.40;99.90;;;;;;5033215;28;20174;-74
2023/08/20 11:42:25;;;;;;;11.05;8.52;;;27.20;99.90;;;;;;5032987;28;20682;-74
2023/08/20 11:44:55;;;;;;;10.23;8.23;;;26.90;1.00;;;;;;5035401;28;20187;-74
2023/08/20 11:47:20;;;;;;;14.93;8.02;;;26.80;99.90;;;;;;5035783;28;20175;-74
2023/08/20 11:49:46;;;;;;;10.93;7.57;;;26.60;1.00;;;;;;5037132;28;20518;-74
2023/08/20 11:52:13;;;;;;;8.93;7.47;;;26.70;34.20;;;;;;5033932;28;20230;-74
2023/08/20 11:54:38;;;;;;;9.13;6.07;;;26.70;1.00;;;;;;5036272;28;20202;-74
2023/08/20 11:57:06;;;;;;;9.25;5.60;;;26.60;1.00;;;;;;5037200;28;20179;-73
2023/08/20 11:59:34;;;;;;;8.40;5.53;;;26.50;1.00;;;;;;5036633;28;20152;-74
2023/08/20 12:02:05;;;;;;;7.55;5.80;;;26.50;1.00;;;;;;5033563;28;20225;-75
2023/08/20 12:04:31;;;;;;;9.00;6.35;;;26.60;1.00;;;;;;5022982;28;20314;-75
2023/08/20 12:07:06;;;;;;;9.45;6.95;;;26.70;1.00;;;;;;5033527;28;20174;-74
2023/08/20 12:09:32;;;;;;;10.75;8.77;;;27.00;1.00;;;;;;5024677;28;20182;-73
2023/08/20 12:11:58;;;;;;;12.07;8.32;;;27.10;1.00;;;;;;5030690;28;20176;-74
2023/08/20 12:14:25;;;;;;;10.93;7.25;;;27.20;1.00;;;;;;5028776;28;20190;-74
2023/08/20 12:16:54;;;;;;;9.27;7.00;;;27.40;1.00;;;;;;5032946;28;20189;-74
2023/08/20 12:19:20;;;;;;;11.07;6.72;;;27.40;1.00;;;;;;5025924;28;20191;-74
2023/08/20 12:21:46;;;;;;;9.07;6.50;;;27.40;99.90;;;;;;5029444;28;20269;-74
2023/08/20 12:24:12;;;;;;;8.57;6.85;;;27.50;1.00;;;;;;5022103;28;20175;-74
2023/08/20 12:26:39;;;;;;;11.43;7.78;;;27.40;16.70;;;;;;5029042;28;20183;-75
2023/08/20 12:29:05;;;;;;;10.23;6.97;;;27.40;99.90;;;;;;5034256;28;20187;-74
2023/08/20 12:31:32;;;;;;;10.10;7.93;;;27.40;1.00;;;;;;5029189;28;20187;-74
2023/08/20 12:33:59;;;;;;;11.02;8.68;;;27.30;99.90;;;;;;5018125;28;20235;-74
2023/08/20 12:36:25;;;;;;;13.30;8.55;;;27.30;1.00;;;;;;5031874;28;20763;-76